Time;durP1;ratioP1;P1;durP2;ratioP2;P2;SDS_P1;SDS_P2;PMS_P1;PMS_P2;Temp;Humidity;BMP_temperature;BMP_pressure;BME280_temperature;BME280_humidity;BME280_pressure;Samples;Min_cycle;Max_cycle;Signal;HPM_P1;HPM_P2
2023/06/15 00:00:49;;;;;;;35.80;5.82;;;;;;;17.56;40.87;99783.94;6049122;23;20022;-94
2023/06/15 00:03:18;;;;;;;30.15;6.15;;;;;;;17.57;41.51;99787.50;6049701;23;20050;-94
2023/06/15 00:05:44;;;;;;;19.52;6.25;;;;;;;17.54;41.45;99791.75;6073823;23;20018;-95
2023/06/15 00:08:10;;;;;;;15.57;5.60;;;;;;;17.20;40.65;99739.78;6049043;23;20026;-93
2023/06/15 00:10:37;;;;;;;21.10;6.47;;;;;;;17.09;41.79;99718.16;6095855;23;20027;-91
2023/06/15 00:13:03;;;;;;;14.67;5.80;;;;;;;17.40;40.98;99776.72;6072627;23;20031;-92
2023/06/15 00:15:29;;;;;;;14.57;5.70;;;;;;;17.20;41.92;99756.34;6048182;23;20022;-92
2023/06/15 00:17:55;;;;;;;15.63;4.93;;;;;;;17.22;41.35;99760.38;6071730;23;20045;-93
2023/06/15 00:20:28;;;;;;;13.00;5.20;;;;;;;17.14;41.43;99755.78;6046647;23;20023;-91
2023/06/15 00:22:55;;;;;;;22.50;6.15;;;;;;;17.36;40.92;99795.94;6070486;23;20053;-90
2023/06/15 00:25:22;;;;;;;18.38;6.40;;;;;;;17.54;40.88;99811.13;6071116;23;20022;-91
2023/06/15 00:27:48;;;;;;;19.20;6.32;;;;;;;17.45;40.51;99782.81;6023733;23;20031;-92
2023/06/15 00:30:15;;;;;;;15.65;6.63;;;;;;;17.43;40.37;99779.59;6024352;23;20682;-92
2023/06/15 00:32:42;;;;;;;23.77;6.32;;;;;;;17.53;41.51;99808.72;6064630;23;20017;-92
2023/06/15 00:35:08;;;;;;;18.70;6.07;;;;;;;17.41;42.10;99797.66;6106864;23;20056;-93
2023/06/15 00:37:35;;;;;;;20.88;6.55;;;;;;;16.99;40.80;99742.66;6106362;23;20017;-91
2023/06/15 00:40:13;;;;;;;17.53;6.57;;;;;;;16.94;41.17;99738.16;6130306;23;20404;-92
2023/06/15 00:42:39;;;;;;;12.15;5.97;;;;;;;16.89;40.94;99714.34;6107048;23;20750;-91
2023/06/15 00:45:06;;;;;;;16.13;6.47;;;;;;;17.08;41.32;99755.19;6107564;23;20020;-90
2023/06/15 00:47:38;;;;;;;;;;;;;;;17.44;41.25;99814.34;6131931;23;20017;-92
2023/06/15 00:50:14;;;;;;;13.95;5.88;;;;;;;17.21;42.23;99778.09;6106633;23;19924;-93
2023/06/15 00:52:40;;;;;;;17.67;6.13;;;;;;;16.98;42.19;99757.59;6106516;23;20022;-92
2023/06/15 00:55:12;;;;;;;17.13;6.53;;;;;;;16.81;41.98;99753.91;6130060;23;20017;-93
2023/06/15 00:57:44;;;;;;;14.00;6.25;;;;;;;16.81;43.22;99758.63;6100300;23;20096;-92
2023/06/15 01:00:12;;;;;;;21.83;6.05;;;;;;;16.98;43.53;99788.00;6076693;23;20101;-93
2023/06/15 01:02:39;;;;;;;14.07;5.68;;;;;;;16.89;43.90;99791.69;6100625;23;20112;-93
2023/06/15 01:05:05;;;;;;;;;;;;;;;17.06;44.34;99821.03;6102789;23;20101;-93
2023/06/15 01:07:35;;;;;;;13.80;6.63;;;;;;;16.47;45.05;99744.06;6076617;23;19944;-93
2023/06/15 01:10:02;;;;;;;21.10;5.72;;;;;;;16.55;43.99;99767.19;6076233;23;20022;-92
2023/06/15 01:12:31;;;;;;;14.10;5.93;;;;;;;16.52;44.93;99765.13;6077095;23;20029;-92
2023/06/15 01:15:10;;;;;;;19.00;6.20;;;;;;;16.58;45.35;99789.41;6071243;23;20022;-94
2023/06/15 01:17:44;;;;;;;22.27;6.45;;;;;;;16.56;45.51;99805.50;6047301;23;20022;-92
2023/06/15 01:20:17;;;;;;;13.85;5.30;;;;;;;16.61;44.23;99835.63;6071230;23;20231;-93
2023/06/15 01:22:58;;;;;;;12.68;6.10;;;;;;;16.31;46.53;99778.97;6049102;23;20093;-93
2023/06/15 01:25:43;;;;;;;12.00;6.00;;;;;;;15.98;46.55;99746.66;6048895;23;20022;-94
2023/06/15 01:28:10;;;;;;;19.80;6.43;;;;;;;16.13;46.99;99781.91;6026340;23;20518;-93
2023/06/15 01:30:48;;;;;;;10.80;5.65;;;;;;;15.98;47.46;99779.75;6050603;23;20018;-96
2023/06/15 01:33:15;;;;;;;12.85;5.90;;;;;;;15.98;45.02;99783.31;6054560;23;20109;-91
2023/06/15 01:35:42;;;;;;;25.58;6.43;;;;;;;16.07;47.12;99797.06;6071188;23;20019;-93
2023/06/15 01:38:09;;;;;;;24.08;5.95;;;;;;;15.85;48.59;99778.88;6047030;23;20029;-92
2023/06/15 01:40:40;;;;;;;21.70;5.60;;;;;;;15.79;47.77;99757.38;6047589;23;20037;-93
2023/06/15 01:43:24;;;;;;;9.75;5.50;;;;;;;15.91;45.06;99774.00;6049114;23;20525;-92
2023/06/15 01:45:54;;;;;;;27.90;7.07;;;;;;;15.89;46.67;99766.06;6047724;23;20539;-92
2023/06/15 01:48:21;;;;;;;34.70;6.32;;;;;;;16.38;47.10;99826.13;6096073;23;20106;-93
2023/06/15 01:50:49;;;;;;;27.52;5.78;;;;;;;16.01;46.06;99772.78;6024190;23;20042;-92
2023/06/15 01:53:15;;;;;;;13.82;6.05;;;;;;;16.07;45.55;99769.47;6094756;23;20017;-92
2023/06/15 01:55:41;;;;;;;41.78;6.85;;;;;;;16.41;46.44;99815.22;6103291;23;20018;-92
2023/06/15 01:58:15;;;;;;;20.75;5.88;;;;;;;16.13;46.68;99768.13;6045852;23;20597;-93
2023/06/15 02:00:47;;;;;;;98.68;9.23;;;;;;;15.89;46.76;99735.75;6039904;23;20014;-92
2023/06/15 02:03:15;;;;;;;31.27;6.55;;;;;;;16.16;46.60;99778.47;6045884;23;20018;-91
2023/06/15 02:05:44;;;;;;;22.70;6.38;;;;;;;16.19;45.27;99777.81;6039394;23;20022;-93
2023/06/15 02:08:14;;;;;;;10.65;5.18;;;;;;;16.25;45.35;99788.59;6076066;23;20022;-91
2023/06/15 02:10:40;;;;;;;16.75;5.25;;;;;;;16.26;45.80;99774.50;6027160;23;20107;-92
2023/06/15 02:13:12;;;;;;;14.25;5.30;;;;;;;16.43;45.57;99806.63;6027510;23;20018;-92
2023/06/15 02:15:39;;;;;;;19.23;5.40;;;;;;;16.35;43.96;99779.91;6049611;23;20450;-93
2023/06/15 02:18:11;;;;;;;11.80;5.43;;;;;;;16.32;45.89;99761.25;6049602;23;20014;-92
2023/06/15 02:20:42;;;;;;;25.50;6.38;;;;;;;16.33;45.89;99752.66;6024735;23;20018;-90
2023/06/15 02:23:11;;;;;;;11.65;5.55;;;;;;;16.52;43.99;99776.94;6024781;23;20018;-91
2023/06/15 02:25:38;;;;;;;19.42;6.47;;;;;;;16.61;44.97;99785.94;6073548;23;20025;-91
2023/06/15 02:28:04;;;;;;;34.58;7.18;;;;;;;16.60;45.93;99778.81;6048903;23;20029;-93
2023/06/15 02:30:30;;;;;;;14.10;5.43;;;;;;;16.81;43.60;99808.34;6049169;23;20457;-91
2023/06/15 02:33:00;;;;;;;9.30;5.70;;;;;;;16.61;43.54;99769.38;6072824;23;20050;-93
2023/06/15 02:35:28;;;;;;;11.68;5.53;;;;;;;16.99;43.44;99815.28;6025730;23;20071;-92
2023/06/15 02:37:55;;;;;;;16.02;5.90;;;;;;;16.89;43.40;99786.16;6025971;23;20018;-91
2023/06/15 02:40:21;;;;;;;18.10;6.15;;;;;;;17.04;42.93;99795.69;6026550;23;20040;-90
2023/06/15 02:42:47;;;;;;;15.02;5.63;;;;;;;17.34;42.74;99834.97;6048975;23;20113;-92
2023/06/15 02:45:13;;;;;;;14.60;5.57;;;;;;;16.98;42.60;99777.75;6072969;23;20425;-90
2023/06/15 02:47:42;;;;;;;13.40;5.40;;;;;;;17.08;42.69;99801.34;6073285;23;20028;-91
2023/06/15 02:50:09;;;;;;;10.95;5.78;;;;;;;16.91;43.06;99763.72;6074472;23;20022;-90
2023/06/15 02:52:40;;;;;;;12.38;5.43;;;;;;;16.98;42.95;99774.19;6074502;23;20014;-90
2023/06/15 02:55:13;;;;;;;12.90;6.07;;;;;;;17.23;43.22;99821.97;6072487;23;20086;-88
2023/06/15 02:57:40;;;;;;;12.10;6.07;;;;;;;17.18;42.99;99808.38;6089984;23;20111;-88
2023/06/15 03:00:25;;;;;;;14.85;5.90;;;;;;;16.85;43.24;99754.88;6125995;23;20018;-89
2023/06/15 03:03:11;;;;;;;14.55;5.75;;;;;;;17.27;43.11;99814.59;6149459;23;20017;-90
2023/06/15 03:05:40;;;;;;;17.20;5.68;;;;;;;17.24;43.61;99796.75;6101151;23;20396;-90
2023/06/15 03:08:08;;;;;;;10.38;6.40;;;;;;;17.14;43.51;99775.91;6126449;23;20349;-89
2023/06/15 03:10:57;;;;;;;11.48;5.85;;;;;;;17.23;43.45;99784.09;6125277;23;20026;-90
2023/06/15 03:13:24;;;;;;;12.90;6.28;;;;;;;17.23;43.71;99780.53;6076446;23;20022;-88
2023/06/15 03:15:50;;;;;;;17.30;6.22;;;;;;;17.23;44.16;99775.00;6100770;23;20018;-90
2023/06/15 03:18:17;;;;;;;14.05;5.95;;;;;;;17.51;44.25;99817.34;6127765;23;20341;-90
2023/06/15 03:20:52;;;;;;;12.90;5.97;;;;;;;17.63;44.54;99826.78;6101775;23;20103;-91
2023/06/15 03:23:19;;;;;;;14.45;6.32;;;;;;;17.36;44.43;99782.13;6125633;23;20017;-89
2023/06/15 03:25:45;;;;;;;16.25;6.88;;;;;;;17.64;44.31;99814.56;6127652;23;20100;-87
2023/06/15 03:28:12;;;;;;;17.98;6.68;;;;;;;17.51;44.38;99792.44;6126586;23;20025;-89
2023/06/15 03:30:40;;;;;;;11.70;6.10;;;;;;;17.65;43.79;99811.47;6126165;23;20425;-89
2023/06/15 03:33:07;;;;;;;13.38;5.95;;;;;;;17.88;44.45;99833.91;6150822;23;20021;-91
2023/06/15 03:35:34;;;;;;;15.75;6.20;;;;;;;17.68;44.15;99799.72;6124613;23;20018;-93
2023/06/15 03:38:00;;;;;;;13.07;6.22;;;;;;;17.90;44.40;99831.59;6128007;23;20088;-88
2023/06/15 03:40:29;;;;;;;16.30;6.77;;;;;;;17.55;44.22;99770.47;6101008;23;20025;-94
2023/06/15 03:42:56;;;;;;;14.32;6.35;;;;;;;17.52;44.17;99758.16;6126449;23;20022;-92
2023/06/15 03:45:22;;;;;;;20.80;7.13;;;;;;;17.84;43.88;99794.25;6122508;23;20025;-92
2023/06/15 03:47:50;;;;;;;15.68;6.60;;;;;;;17.97;43.66;99812.44;6076499;23;20021;-91
2023/06/15 03:50:17;;;;;;;14.68;6.55;;;;;;;18.16;44.17;99828.41;6104001;23;20507;-89
2023/06/15 03:52:43;;;;;;;18.95;6.65;;;;;;;18.35;44.17;99857.41;6103358;23;20042;-88
2023/06/15 03:55:32;;;;;;;14.57;5.97;;;;;;;18.06;43.84;99804.81;6100786;23;20045;-92
2023/06/15 03:57:58;;;;;;;16.45;6.15;;;;;;;18.14;43.11;99805.81;6042660;23;20050;-93
2023/06/15 04:00:25;;;;;;;;;;;;;;;18.48;43.52;99850.66;6020379;23;20018;-88
2023/06/15 04:02:53;;;;;;;16.60;6.13;;;;;;;18.14;43.18;99791.16;6067067;23;20003;-88
2023/06/15 04:05:21;;;;;;;28.35;6.75;;;;;;;18.19;42.91;99791.72;6067762;23;20019;-87
2023/06/15 04:07:47;;;;;;;18.85;7.05;;;;;;;18.43;43.38;99824.03;6068972;23;20027;-88
2023/06/15 04:10:13;;;;;;;16.73;6.25;;;;;;;18.25;42.83;99787.56;6044348;23;20461;-92
2023/06/15 04:12:39;;;;;;;31.88;7.28;;;;;;;18.58;43.24;99829.97;6019035;23;20049;-89
2023/06/15 04:15:11;;;;;;;;;;;;;;;18.79;42.89;99841.63;6069364;23;20159;-88
2023/06/15 04:17:52;;;;;;;14.32;6.25;;;;;;;18.76;42.62;99828.50;6068780;23;19944;-93
2023/06/15 04:20:19;;;;;;;22.67;6.45;;;;;;;18.68;42.95;99801.75;6068382;23;20022;-87
2023/06/15 04:22:47;;;;;;;16.13;6.45;;;;;;;18.94;42.69;99834.50;6071475;23;20093;-93
2023/06/15 04:25:13;;;;;;;37.47;6.77;;;;;;;19.13;42.25;99855.97;6067966;23;20014;-91
2023/06/15 04:27:39;;;;;;;24.20;6.43;;;;;;;18.88;42.07;99808.25;6073991;23;20592;-92
2023/06/15 04:30:16;;;;;;;27.05;6.25;;;;;;;19.05;42.12;99823.72;6025787;23;20043;-93
2023/06/15 04:33:19;;;;;;;22.25;6.00;;;;;;;19.16;41.74;99822.78;6048384;23;20050;-95
2023/06/15 04:36:38;;;;;;;27.30;6.47;;;;;;;19.44;41.48;99850.41;6123480;23;20018;-96
2023/06/15 04:39:31;;;;;;;19.42;6.80;;;;;;;19.56;41.87;99851.47;6111686;23;20073;-92
2023/06/15 04:42:11;;;;;;;28.67;6.80;;;;;;;19.29;41.50;99797.75;6137416;23;20022;-91
2023/06/15 04:45:03;;;;;;;19.23;7.05;;;;;;;19.74;39.72;99849.16;6085089;23;20149;-92
2023/06/15 04:47:49;;;;;;;;;;;;;;;;;;;;;
2023/06/15 04:51:18;;;;;;;26.15;5.40;;;;;;;19.99;38.66;99841.38;6134947;23;20052;-94
2023/06/15 04:56:51;;;;;;;23.38;5.57;;;;;;;19.89;39.80;99792.78;6168780;23;20029;-95
2023/06/15 04:59:25;;;;;;;19.98;5.15;;;;;;;19.97;37.26;99802.06;6115512;23;20021;-92
2023/06/15 05:01:53;;;;;;;13.13;5.55;;;;;;;20.42;37.23;99854.97;6115376;23;20017;-94
2023/06/15 05:08:33;;;;;;;16.30;5.95;;;;;;;20.61;37.35;99856.16;6198312;23;20025;-93
2023/06/15 05:11:09;;;;;;;37.42;6.13;;;;;;;20.06;36.44;99764.59;6110330;23;20025;-92
2023/06/15 05:17:45;;;;;;;14.60;5.55;;;;;;;20.43;36.41;99805.81;6193069;23;20091;-92
2023/06/15 05:20:24;;;;;;;22.63;5.75;;;;;;;20.87;36.52;99855.47;6142936;23;20045;31
2023/06/15 05:22:51;;;;;;;15.30;5.85;;;;;;;20.64;36.01;99805.44;6138743;23;20021;-94
2023/06/15 05:41:37;;;;;;;15.25;4.93;;;;;;;21.67;35.40;99850.06;6172900;23;20022;-92
2023/06/15 05:44:04;;;;;;;17.40;5.22;;;;;;;21.48;34.94;99814.78;6134688;23;20023;-93
2023/06/15 05:50:18;;;;;;;13.38;4.15;;;;;;;21.84;34.11;99852.28;6251317;23;20052;-95
2023/06/15 05:52:51;;;;;;;16.77;5.25;;;;;;;21.43;33.88;99773.41;6226622;23;20020;-92
2023/06/15 06:09:09;;;;;;;15.02;4.28;;;;;;;22.24;33.22;99828.59;6189214;23;19993;-88
2023/06/15 06:11:35;;;;;;;27.65;4.68;;;;;;;22.40;34.78;99831.16;6165713;23;20021;-91
2023/06/15 06:14:03;;;;;;;9.23;4.72;;;;;;;22.32;33.39;99819.16;6160284;23;20013;-91
2023/06/15 06:16:55;;;;;;;14.00;4.10;;;;;;;22.66;32.60;99855.34;6117108;23;20053;-91
2023/06/15 06:19:31;;;;;;;22.50;6.03;;;;;;;22.30;34.79;99771.38;6165648;23;20021;-91
2023/06/15 06:22:07;;;;;;;17.48;5.72;;;;;;;22.66;34.53;99802.41;6138151;23;20410;-92
2023/06/15 06:24:33;;;;;;;14.65;4.30;;;;;;;22.46;31.74;99779.50;6130846;23;20048;-92
2023/06/15 06:27:05;;;;;;;16.90;5.13;;;;;;;22.69;33.64;99802.44;6131366;23;20021;-91
2023/06/15 06:30:24;;;;;;;24.58;5.07;;;;;;;23.15;33.46;99859.84;6153418;23;20017;-92
2023/06/15 06:32:49;;;;;;;23.73;5.28;;;;;;;23.11;32.51;99825.53;6034170;23;20019;-87
2023/06/15 06:35:16;;;;;;;20.70;5.18;;;;;;;23.03;33.43;99801.56;6037397;23;20332;-88
2023/06/15 06:37:44;;;;;;;13.45;5.07;;;;;;;23.40;33.63;99846.09;6011383;23;20015;-88
2023/06/15 06:40:11;;;;;;;37.58;6.22;;;;;;;23.40;34.93;99824.56;5985367;23;20189;-89
2023/06/15 06:42:42;;;;;;;14.00;5.40;;;;;;;23.36;30.52;99817.38;6036291;23;20066;-88
2023/06/15 06:45:15;;;;;;;8.88;4.43;;;;;;;23.20;30.90;99803.69;5986832;23;20027;-89
2023/06/15 06:48:21;;;;;;;;;;;;;;;;;;;;;
2023/06/15 06:50:57;;;;;;;8.82;4.30;;;;;;;23.12;31.24;99791.69;6100872;23;20104;-90
2023/06/15 06:53:23;;;;;;;13.90;4.50;;;;;;;23.51;31.82;99826.63;6156547;23;20051;-92
2023/06/15 06:56:05;;;;;;;13.77;4.32;;;;;;;23.77;31.33;99851.56;6107550;23;20091;-91
2023/06/15 06:58:56;;;;;;;11.23;4.80;;;;;;;23.83;31.58;99850.00;6157485;23;20071;-90
2023/06/15 07:01:22;;;;;;;22.35;4.50;;;;;;;23.50;31.80;99797.13;6157582;23;20361;-91
2023/06/15 07:04:13;;;;;;;6.60;3.97;;;;;;;24.01;30.15;99852.13;6130350;23;20024;-90
2023/06/15 07:06:39;;;;;;;9.93;4.10;;;;;;;24.09;31.55;99851.75;6164275;23;20021;-91
2023/06/15 07:09:07;;;;;;;45.33;6.50;;;;;;;23.71;29.81;99805.69;6129826;23;20021;-91
2023/06/15 07:12:03;;;;;;;12.05;4.03;;;;;;;23.57;30.06;99777.66;6155909;23;20017;-94
2023/06/15 07:14:29;;;;;;;14.30;4.72;;;;;;;24.00;30.07;99844.91;6155698;23;20535;-88
2023/06/15 07:16:56;;;;;;;11.13;4.90;;;;;;;24.09;29.62;99845.38;6129262;23;20055;-91
2023/06/15 07:20:14;;;;;;;14.52;4.90;;;;;;;23.64;32.39;99778.50;6153325;23;20611;-89
2023/06/15 07:22:42;;;;;;;31.48;5.75;;;;;;;23.83;31.21;99794.16;6125766;23;20021;-88
2023/06/15 07:25:08;;;;;;;28.70;5.75;;;;;;;23.76;29.47;99793.34;6170167;23;20048;-88
2023/06/15 07:27:35;;;;;;;17.75;4.85;;;;;;;24.12;28.93;99839.78;6152305;23;20048;-87
2023/06/15 07:36:03;;;;;;;23.30;4.95;;;;;;;24.34;30.61;99818.34;6154356;23;20030;-90
2023/06/15 07:38:54;;;;;;;12.10;4.20;;;;;;;24.49;29.42;99816.41;6103251;23;20025;-88
2023/06/15 07:42:10;;;;;;;9.20;3.95;;;;;;;24.42;28.84;99818.41;6153980;23;20052;-89
2023/06/15 07:44:36;;;;;;;21.05;5.05;;;;;;;24.08;30.08;99757.19;6103320;23;20057;-89
2023/06/15 07:47:03;;;;;;;22.95;5.50;;;;;;;24.23;29.39;99769.19;6107508;23;20017;-87
2023/06/15 07:50:01;;;;;;;24.05;5.10;;;;;;;24.55;30.34;99806.44;6043194;23;20020;-88
2023/06/15 07:52:42;;;;;;;7.10;4.38;;;;;;;24.29;28.15;99759.25;6134153;23;20124;-91
2023/06/15 07:55:09;;;;;;;48.10;5.82;;;;;;;24.28;28.69;99768.81;6168517;23;20022;-95
2023/06/15 07:57:56;;;;;;;21.10;4.82;;;;;;;24.27;29.31;99768.03;6112003;23;20215;-91
2023/06/15 08:01:02;;;;;;;29.23;5.18;;;;;;;24.58;27.64;99824.44;6133239;23;20029;-93
2023/06/15 08:07:37;;;;;;;18.70;4.75;;;;;;;24.81;29.74;99790.53;6155840;23;20025;-92
2023/06/15 08:10:08;;;;;;;26.60;5.23;;;;;;;24.65;27.83;99782.50;6035345;23;2225005;-91
2023/06/15 08:16:10;;;;;;;13.85;4.60;;;;;;;24.79;27.42;99818.88;6164689;23;20037;-89
2023/06/15 08:19:14;;;;;;;10.80;4.85;;;;;;;24.81;27.27;99808.09;6160638;23;20024;-91
2023/06/15 08:21:43;;;;;;;15.98;4.63;;;;;;;24.58;28.42;99757.34;6131407;23;20056;-92
2023/06/15 08:25:09;;;;;;;20.30;4.97;;;;;;;25.02;29.66;99796.13;6155673;23;20351;-90
2023/06/15 08:27:42;;;;;;;16.75;5.30;;;;;;;24.94;28.65;99791.72;6136498;23;20059;-93
2023/06/15 08:30:14;;;;;;;19.90;5.45;;;;;;;24.97;29.15;99776.16;6141307;23;20023;-94
2023/06/15 08:36:53;;;;;;;25.52;5.10;;;;;;;24.44;26.95;99707.81;6200022;22;20021;-92
2023/06/15 08:39:21;;;;;;;40.90;5.53;;;;;;;25.04;27.78;99793.72;6166791;23;20084;-90
2023/06/15 08:41:48;;;;;;;13.07;5.00;;;;;;;24.97;27.10;99751.78;6147531;23;20001;-92
2023/06/15 08:44:16;;;;;;;16.13;5.65;;;;;;;24.91;27.82;99739.38;6127441;23;20024;-93
2023/06/15 08:46:43;;;;;;;28.42;6.32;;;;;;;24.90;26.41;99714.59;6112638;23;20025;-95
2023/06/15 08:49:13;;;;;;;20.88;5.22;;;;;;;25.47;28.29;99785.34;6120786;23;20025;-89
2023/06/15 08:54:35;;;;;;;10.23;5.03;;;;;;;25.58;27.79;99770.50;6165849;23;20013;-91
2023/06/15 08:57:17;;;;;;;21.52;4.90;;;;;;;25.42;25.49;99740.94;6131911;23;20028;-90
2023/06/15 08:59:48;;;;;;;24.52;5.68;;;;;;;25.38;27.84;99740.16;6086441;23;20029;-91
2023/06/15 09:02:46;;;;;;;21.48;4.28;;;;;;;25.49;26.01;99734.53;6083622;23;20013;-92
2023/06/15 09:10:31;;;;;;;16.15;5.53;;;;;;;25.71;25.44;99777.28;6160871;23;20069;-92
2023/06/15 09:13:18;;;;;;;13.75;4.90;;;;;;;25.57;26.14;99749.31;6110128;23;20033;-90
2023/06/15 09:16:01;;;;;;;13.65;5.00;;;;;;;25.43;25.76;99717.38;6085419;23;20041;-91
2023/06/15 09:18:56;;;;;;;16.05;5.38;;;;;;;25.66;27.29;99730.91;6107984;23;20118;-90
2023/06/15 09:21:31;;;;;;;9.03;4.97;;;;;;;25.46;26.01;99685.78;6153736;23;20021;-89
2023/06/15 09:24:24;;;;;;;13.70;4.88;;;;;;;25.93;25.01;99758.44;6190432;23;20025;-91
2023/06/15 09:27:29;;;;;;;14.43;5.38;;;;;;;25.74;24.56;99756.88;6220163;23;19999;-93
2023/06/15 09:30:06;;;;;;;17.70;5.70;;;;;;;25.29;24.81;99709.78;6215670;23;20021;-88
2023/06/15 09:32:43;;;;;;;11.73;5.18;;;;;;;25.40;24.45;99720.97;6189547;23;20009;-91
2023/06/15 09:42:29;;;;;;;13.82;5.60;;;;;;;25.78;23.75;99738.03;6134851;23;19927;-88
2023/06/15 09:45:00;;;;;;;15.93;5.57;;;;;;;25.77;25.42;99742.06;6194539;23;20020;-92
2023/06/15 09:47:30;;;;;;;19.48;6.53;;;;;;;25.69;26.21;99709.66;6249016;23;20078;-90
2023/06/15 09:50:02;;;;;;;12.00;8.10;;;;;;;25.57;25.95;99668.13;6206769;23;20012;-91
2023/06/15 09:52:31;;;;;;;14.65;5.55;;;;;;;25.86;25.14;99699.63;6208634;23;20016;-94
2023/06/15 10:03:54;;;;;;;9.63;5.32;;;;;;;26.57;26.05;99734.88;6227053;23;20029;-93
2023/06/15 10:06:33;;;;;;;10.60;5.45;;;;;;;26.40;25.22;99691.72;6153994;23;19997;-93
2023/06/15 10:09:10;;;;;;;43.28;6.85;;;;;;;26.30;23.10;99684.97;6171679;23;20459;-91
2023/06/15 10:11:43;;;;;;;14.90;5.05;;;;;;;26.53;22.98;99728.50;6132410;23;20041;-85
2023/06/15 10:14:15;;;;;;;11.82;5.60;;;;;;;26.42;23.33;99703.28;6153877;23;20360;-86
2023/06/15 10:16:49;;;;;;;12.73;5.32;;;;;;;26.20;23.05;99674.63;6128043;23;20018;-84
2023/06/15 10:19:16;;;;;;;22.98;5.38;;;;;;;26.33;24.95;99695.38;6129367;23;20107;-84
2023/06/15 10:21:44;;;;;;;16.52;5.65;;;;;;;26.38;23.83;99689.31;6125728;23;20273;-84
2023/06/15 10:24:14;;;;;;;16.33;5.68;;;;;;;26.64;25.08;99715.19;6123936;23;20018;-86
2023/06/15 10:26:40;;;;;;;14.60;5.97;;;;;;;26.66;25.25;99691.13;6123782;23;20080;-86
2023/06/15 10:29:32;;;;;;;;;;;;;;;26.90;24.50;99702.56;6126562;23;20100;-80
2023/06/15 10:32:10;;;;;;;28.65;6.45;;;;;;;27.00;24.70;99706.47;6119161;23;20307;-85
2023/06/15 10:34:46;;;;;;;36.80;6.43;;;;;;;26.82;23.86;99693.41;6123742;23;20018;-86
2023/06/15 10:37:35;;;;;;;22.45;6.93;;;;;;;26.97;24.54;99701.69;6123334;23;20020;-82
2023/06/15 10:40:12;;;;;;;22.45;6.75;;;;;;;26.84;22.99;99676.94;6122934;23;20018;-85
2023/06/15 10:42:44;;;;;;;;;;;;;;;26.98;23.07;99701.25;6127128;23;20025;-85
2023/06/15 10:45:30;;;;;;;14.15;5.53;;;;;;;27.11;24.67;99690.31;6102092;23;19959;-84
2023/06/15 10:47:58;;;;;;;33.70;6.60;;;;;;;27.29;25.19;99688.16;6120664;23;20022;-84
2023/06/15 10:50:25;;;;;;;12.43;5.60;;;;;;;27.30;21.90;99694.56;6123889;23;20017;-84
2023/06/15 10:52:52;;;;;;;14.82;6.05;;;;;;;27.21;25.41;99683.03;6075171;23;20495;-84
2023/06/15 10:55:22;;;;;;;;;;;;;;;27.35;23.98;99694.94;6123644;23;20101;-85
2023/06/15 10:57:48;;;;;;;12.05;5.82;;;;;;;27.33;23.15;99671.28;6122979;23;19924;-83
2023/06/15 11:00:37;;;;;;;;;;;;;;;27.51;22.37;99699.94;6124902;23;20085;-84
2023/06/15 11:03:03;;;;;;;12.35;5.85;;;;;;;27.43;21.92;99683.59;6124812;23;19924;-85
2023/06/15 11:05:43;;;;;;;11.50;6.00;;;;;;;27.65;21.92;99696.19;6146662;23;20017;-88
2023/06/15 11:08:17;;;;;;;11.25;6.13;;;;;;;27.64;21.03;99692.56;6125417;23;20021;-87
2023/06/15 11:10:43;;;;;;;19.75;6.68;;;;;;;27.58;22.42;99668.16;6125381;23;20024;-86
2023/06/15 11:13:09;;;;;;;15.60;5.60;;;;;;;27.69;22.20;99687.72;6101087;23;20025;-87
2023/06/15 11:15:36;;;;;;;13.82;5.97;;;;;;;27.53;22.87;99654.59;6076207;23;20049;-86
2023/06/15 11:18:13;;;;;;;18.33;5.88;;;;;;;27.74;23.38;99678.81;6124318;23;20018;-84
2023/06/15 11:20:39;;;;;;;20.38;6.13;;;;;;;27.96;24.02;99687.78;6095468;23;20026;-86
2023/06/15 11:23:18;;;;;;;12.13;5.72;;;;;;;27.98;23.33;99672.09;6124641;23;20109;-88
2023/06/15 11:25:48;;;;;;;13.10;5.82;;;;;;;28.08;22.89;99676.78;6098116;23;20025;-87
2023/06/15 11:28:22;;;;;;;14.90;5.90;;;;;;;28.14;23.61;99660.22;6096488;23;20028;-87
2023/06/15 11:30:49;;;;;;;23.27;7.00;;;;;;;28.42;23.26;99672.28;6122720;23;20045;-86
2023/06/15 11:33:28;;;;;;;19.33;6.13;;;;;;;28.56;23.88;99658.78;6123518;23;20022;-88
2023/06/15 11:35:56;;;;;;;47.83;8.57;;;;;;;28.39;22.46;99625.31;6099265;23;20405;-85
2023/06/15 11:38:26;;;;;;;22.23;6.50;;;;;;;28.31;23.85;99639.47;6123128;23;20017;-81
2023/06/15 11:41:02;;;;;;;12.77;6.70;;;;;;;28.47;22.34;99666.16;6148890;23;20021;-85
2023/06/15 11:43:40;;;;;;;13.07;5.90;;;;;;;28.39;23.83;99642.16;6146793;23;20022;-85
2023/06/15 11:46:13;;;;;;;16.52;6.43;;;;;;;28.57;23.32;99645.50;6099214;23;20452;-85
2023/06/15 11:48:40;;;;;;;10.18;5.70;;;;;;;28.68;22.34;99653.78;6099792;23;20080;-86
2023/06/15 11:51:08;;;;;;;16.13;6.13;;;;;;;28.49;23.07;99622.34;6124349;23;20017;-84
2023/06/15 11:53:39;;;;;;;12.52;5.50;;;;;;;28.54;20.59;99649.16;6122866;23;20017;-86
2023/06/15 11:56:13;;;;;;;13.68;5.72;;;;;;;28.48;23.13;99642.47;6123637;23;20018;-87
2023/06/15 11:58:43;;;;;;;34.58;6.80;;;;;;;28.65;22.40;99643.38;6099946;23;20022;-86
2023/06/15 12:01:14;;;;;;;17.95;5.78;;;;;;;28.59;21.78;99626.19;6124749;23;20018;-86
2023/06/15 12:03:48;;;;;;;24.50;6.80;;;;;;;28.64;22.16;99625.69;6148881;23;20069;-90
2023/06/15 12:06:18;;;;;;;15.63;6.95;;;;;;;28.48;22.32;99601.06;6123987;23;20359;-91
2023/06/15 12:08:56;;;;;;;24.92;6.55;;;;;;;28.66;23.52;99612.00;6103082;23;20049;-95
2023/06/15 12:11:26;;;;;;;22.83;6.35;;;;;;;28.74;24.84;99610.66;6127161;23;20155;-95
2023/06/15 12:13:52;;;;;;;21.38;6.43;;;;;;;28.86;22.54;99602.81;6096659;23;20092;-90
2023/06/15 12:16:18;;;;;;;15.77;6.15;;;;;;;28.74;22.35;99585.34;6121335;23;20032;-93
2023/06/15 12:18:53;;;;;;;12.25;6.30;;;;;;;29.02;22.40;99608.56;6147233;23;20041;-95
2023/06/15 12:21:19;;;;;;;16.88;6.38;;;;;;;28.79;21.24;99581.22;6165122;23;20018;-89
2023/06/15 12:23:48;;;;;;;9.38;6.22;;;;;;;28.91;23.01;99582.63;6089672;23;20028;-92
2023/06/15 12:26:17;;;;;;;27.92;6.80;;;;;;;28.70;21.89;99545.19;6116491;23;20056;-92
2023/06/15 12:28:51;;;;;;;30.83;7.20;;;;;;;28.80;22.48;99586.41;6083092;23;20072;-91
2023/06/15 12:31:17;;;;;;;17.48;6.78;;;;;;;28.84;22.95;99557.41;6105006;23;20018;-88
2023/06/15 12:33:44;;;;;;;53.72;8.05;;;;;;;29.20;22.69;99575.19;6148891;23;20018;-86
2023/06/15 12:36:14;;;;;;;46.40;8.63;;;;;;;29.30;21.32;99597.94;6126640;23;20014;-86
2023/06/15 12:38:42;;;;;;;13.30;6.90;;;;;;;29.25;19.52;99607.69;6125026;23;20101;-87
2023/06/15 12:41:13;;;;;;;39.33;7.85;;;;;;;29.23;19.99;99607.31;6098704;23;20040;-83
2023/06/15 12:43:39;;;;;;;16.80;7.07;;;;;;;29.24;20.42;99598.47;6123509;23;20014;-87
2023/06/15 12:46:05;;;;;;;15.70;6.45;;;;;;;29.24;21.03;99584.38;6146159;23;20069;-84
2023/06/15 12:48:31;;;;;;;15.18;7.15;;;;;;;29.15;22.70;99581.34;6124956;23;20105;-87
2023/06/15 12:50:59;;;;;;;18.35;6.75;;;;;;;29.18;22.20;99583.31;6099141;23;20461;-84
2023/06/15 12:53:25;;;;;;;20.17;7.20;;;;;;;29.31;20.93;99597.53;6075186;23;20472;-88
2023/06/15 12:55:53;;;;;;;13.55;6.75;;;;;;;29.32;22.31;99592.69;6125294;23;20026;-86
2023/06/15 12:58:20;;;;;;;11.85;6.65;;;;;;;29.53;22.82;99589.41;6124636;23;20026;-84
2023/06/15 13:00:48;;;;;;;36.17;7.53;;;;;;;29.33;21.88;99575.34;6121552;23;20022;-84
2023/06/15 13:03:15;;;;;;;33.30;8.23;;;;;;;29.59;22.29;99584.03;6075309;23;20104;-88
2023/06/15 13:05:41;;;;;;;;;;;;;;;29.58;20.52;99594.53;6073709;23;20018;-85
2023/06/15 13:08:07;;;;;;;;;;;;;;;29.54;22.56;99596.63;6124061;23;20018;-90
2023/06/15 13:10:34;;;;;;;45.47;7.88;;;;;;;29.58;21.55;99580.44;6121619;23;19917;-89
2023/06/15 13:13:00;;;;;;;49.20;9.65;;;;;;;29.64;20.50;99586.41;6147316;23;20042;-83
2023/06/15 13:15:27;;;;;;;;;;;;;;;29.60;19.49;99585.66;6124764;23;20141;-86
2023/06/15 13:17:53;;;;;;;23.65;8.15;;;;;;;29.50;19.72;99570.53;6123029;23;19920;-87
2023/06/15 13:20:19;;;;;;;30.52;7.68;;;;;;;29.62;21.70;99572.72;6125949;23;20045;-85
2023/06/15 13:22:47;;;;;;;15.40;7.13;;;;;;;29.65;21.25;99562.63;6130570;23;20334;-85
2023/06/15 13:25:13;;;;;;;15.20;6.40;;;;;;;29.78;21.16;99579.63;6149338;23;20045;-88